Gunnison, CO

06:39 MST le 20 décembre 2014 (GMT -0700)
Gunnison County | Change Station
CLOSE
Current Station
Aéroport
Location: Gunnison,
Altitude: 7674 ft
Stations météo à proximité
Avis météorologiques actifs: Winter Storm Watch

Alt. 7674 ft 38.53 °N, 106.93 °W | Updated 4 minutes ago

Partiellement nuageux
Partiellement nuageux
7 ° F
Paraît 7 ° F
N
0
Vent Variable Vent de Nord

Aujourd'hui
Haut(e) -- | Bas -- ° F
--% Risque de précip.
Hier
Haut(e) -- | Bas -- ° F
Precip. -- pouce
7:21 AM 4:49 PM
Lune descendante, 3% visible
Pression 30.23 pouce
Visibilité 10.0 Miles terrestres
Nuages Ciel dégagé
Point de rosée 1 ° F
Humidité 79%
Précipitations 0.00 pouce
Profondeur de la couche neigeuse Non disponible.
UV 0 sur 12
Pollen .10 sur 12
Qualité de l'air Non disponible.
Flu Activity Non disponible.
METAR KGUC 201335Z AUTO 00000KT 10SM CLR M14/M17 A3023 RMK AO1

More Conditions Fewer Conditions

Pression 30.23 pouce
Visibilité 10.0 Miles terrestres
Nuages Ciel dégagé
Point de rosée 1 ° F
Humidité 79%
Précipitations 0.00 pouce
Profondeur de la couche neigeuse Non disponible.
UV 0 sur 12
Pollen .10 sur 12
Qualité de l'air Non disponible.
Flu Activity Non disponible.
METAR KGUC 201335Z AUTO 00000KT 10SM CLR M14/M17 A3023 RMK AO1

More Conditions Fewer Conditions

10-Day Weather Forecast

Almanac

Astronomie

Dec. 20, 2014 Lever Coucher
Temps réel
Crépuscule civil
Crépuscule nautique
Crépuscule astronomique
Lune
Durée de lumière visible
Longueur du jour
Tomorrow will be .
, % of the Moon is Illuminated

Extrêmes aujourd'hui

State Highs State Lows

Community

WunderPhotos

Upload Photos

1,779,170 Photos téléchargées !

WunderBlogs® & News

Nearby

Qualité de l'air

  Qualité de l'air Indice de la qualité de l'air Polluant
Not available.

Épaisseur de neige

Station Depth Altitude

Activité sismique

Ville Distance Mag. Time & Date
Minimum magnitude displayed is 2.5.

Températures des eaux côtières

Lieu Température

Stations météo à proximité